createdAt,value
2023-03-28T00:02:23.570Z,3.27
2023-03-28T00:07:25.125Z,2.90
2023-03-28T00:12:27.153Z,3.27
2023-03-28T00:17:30.531Z,2.63
2023-03-28T00:22:33.393Z,2.90
2023-03-28T00:27:35.753Z,3.10
2023-03-28T00:32:37.498Z,3.00
2023-03-28T00:37:41.790Z,2.90
2023-03-28T00:42:44.568Z,2.80
2023-03-28T00:47:51.733Z,2.83
2023-03-28T00:53:05.521Z,2.90
2023-03-28T00:58:10.659Z,2.50
2023-03-28T01:03:13.810Z,2.87
2023-03-28T01:08:21.493Z,2.87
2023-03-28T01:13:26.860Z,2.90
2023-03-28T01:18:30.326Z,2.90
2023-03-28T01:30:27.106Z,3.10
2023-03-28T01:36:34.680Z,3.10
2023-03-28T01:42:14.179Z,2.83
2023-03-28T01:47:45.336Z,2.73
2023-03-28T01:52:58.663Z,3.17
2023-03-28T01:58:05.495Z,3.27
2023-03-28T02:03:21.772Z,3.10
2023-03-28T02:08:33.281Z,3.30
2023-03-28T02:14:09.555Z,2.80
2023-03-28T02:19:27.422Z,3.20
2023-03-28T02:24:52.346Z,3.40
2023-03-28T02:30:10.280Z,3.30
2023-03-28T02:35:13.259Z,3.53
2023-03-28T02:40:51.348Z,3.10
2023-03-28T02:46:33.419Z,3.23
2023-03-28T02:51:49.839Z,3.63
2023-03-28T02:57:01.567Z,3.30
2023-03-28T03:02:16.903Z,3.20
2023-03-28T03:07:19.700Z,3.40
2023-03-28T03:12:21.756Z,3.73
2023-03-28T03:17:24.077Z,3.53
2023-03-28T03:22:25.923Z,3.57
2023-03-28T03:27:27.610Z,3.40
2023-03-28T03:32:29.565Z,3.57
2023-03-28T03:37:38.117Z,3.10
2023-03-28T03:42:40.874Z,3.37
2023-03-28T03:47:43.053Z,3.17
2023-03-28T03:52:44.964Z,3.83
2023-03-28T03:57:48.763Z,3.20
2023-03-28T04:02:50.601Z,3.60
2023-03-28T04:08:00.412Z,4.10
2023-03-28T04:13:06.479Z,3.13
2023-03-28T04:18:10.081Z,3.63
2023-03-28T04:23:20.434Z,3.63
2023-03-28T04:28:25.631Z,4.03
2023-03-28T04:33:34.245Z,3.67
2023-03-28T04:38:46.965Z,3.40
2023-03-28T04:44:06.500Z,3.40
2023-03-28T04:49:15.278Z,3.90
2023-03-28T04:54:18.696Z,3.77
2023-03-28T04:59:21.462Z,3.83
2023-03-28T05:04:26.239Z,3.93
2023-03-28T05:09:29.288Z,4.43
2023-03-28T05:14:32.419Z,3.70
2023-03-28T05:19:47.501Z,3.80
2023-03-28T05:24:59.558Z,3.57
2023-03-28T05:30:01.602Z,3.33
2023-03-28T05:35:05.563Z,3.90
2023-03-28T05:40:10.787Z,3.60
2023-03-28T05:45:15.434Z,3.87
2023-03-28T05:50:32.946Z,3.70
2023-03-28T05:55:41.867Z,3.60
2023-03-28T06:00:44.913Z,3.47
2023-03-28T06:06:04.769Z,3.73
2023-03-28T06:11:09.750Z,3.23
2023-03-28T06:16:30.675Z,3.33
2023-03-28T06:21:35.051Z,3.00
2023-03-28T06:26:40.817Z,2.80
2023-03-28T06:31:44.762Z,2.53
2023-03-28T06:36:47.870Z,2.50
2023-03-28T06:41:49.865Z,2.73
2023-03-28T06:46:52.057Z,2.60
2023-03-28T06:51:56.498Z,2.83
2023-03-28T06:57:01.353Z,2.60
2023-03-28T07:02:03.645Z,2.40
2023-03-28T07:07:09.518Z,2.87
2023-03-28T07:12:11.565Z,2.93
2023-03-28T07:17:13.960Z,2.00
2023-03-28T07:22:16.206Z,1.67
2023-03-28T07:27:18.037Z,1.63
2023-03-28T07:32:21.778Z,1.60
2023-03-28T07:37:24.700Z,1.40
2023-03-28T07:42:41.358Z,1.43
2023-03-28T07:47:44.231Z,1.50
2023-03-28T07:52:46.645Z,1.60
2023-03-28T07:57:48.885Z,1.57
2023-03-28T08:03:05.333Z,1.70
2023-03-28T08:08:08.070Z,1.80
2023-03-28T08:13:11.882Z,1.63
2023-03-28T08:18:17.743Z,1.90
2023-03-28T08:23:19.679Z,1.43
2023-03-28T08:28:38.903Z,1.67
2023-03-28T08:33:42.417Z,1.07
2023-03-28T08:38:46.646Z,1.53
2023-03-28T08:44:08.809Z,1.20
2023-03-28T08:49:18.323Z,1.10
2023-03-28T08:54:29.054Z,1.30
2023-03-28T08:59:39.633Z,0.97
2023-03-28T09:04:45.302Z,0.73
2023-03-28T09:09:59.155Z,1.13
2023-03-28T09:15:39.159Z,0.80
2023-03-28T09:20:56.099Z,1.00
2023-03-28T09:26:12.267Z,0.80
2023-03-28T09:31:17.130Z,1.27
2023-03-28T09:36:24.755Z,1.30
2023-03-28T09:41:52.776Z,1.30
2023-03-28T09:47:15.012Z,1.40
2023-03-28T09:52:22.412Z,1.10
2023-03-28T09:57:24.820Z,1.20
2023-03-28T10:02:34.285Z,1.13
2023-03-28T10:07:58.849Z,1.30
2023-03-28T10:13:12.461Z,0.93
2023-03-28T10:18:20.515Z,1.00
2023-03-28T10:23:33.833Z,0.90
2023-03-28T10:28:37.403Z,1.17
2023-03-28T10:33:46.476Z,0.70
2023-03-28T10:39:22.835Z,0.80
2023-03-28T10:44:45.271Z,1.13
2023-03-28T10:49:55.744Z,1.00
2023-03-28T10:55:27.407Z,1.30
2023-03-28T11:01:10.248Z,1.30
2023-03-28T11:06:50.008Z,1.43
2023-03-28T11:12:28.299Z,1.20
2023-03-28T11:17:39.710Z,1.40
2023-03-28T11:23:05.102Z,1.37
2023-03-28T11:28:48.501Z,1.40
2023-03-28T11:34:40.726Z,1.37
2023-03-28T11:39:48.205Z,1.40
2023-03-28T11:45:33.934Z,1.27
2023-03-28T11:50:59.858Z,1.37
2023-03-28T11:56:36.354Z,1.20
2023-03-28T12:01:53.990Z,1.20
2023-03-28T12:07:10.627Z,1.40
2023-03-28T12:12:38.751Z,1.20
2023-03-28T12:17:44.619Z,1.50
2023-03-28T12:22:54.581Z,1.40
2023-03-28T12:28:23.475Z,1.00
2023-03-28T12:33:55.862Z,1.20
2023-03-28T12:39:46.334Z,1.30
2023-03-28T12:45:21.299Z,1.30
2023-03-28T12:50:42.863Z,1.13
2023-03-28T12:56:02.423Z,1.43
2023-03-28T13:01:38.340Z,1.30
2023-03-28T13:08:15.174Z,1.43
2023-03-28T13:13:34.328Z,1.20
2023-03-28T13:18:50.218Z,1.30
2023-03-28T13:24:08.482Z,1.30
2023-03-28T13:29:11.158Z,1.70
2023-03-28T13:34:25.431Z,1.50
2023-03-28T13:39:28.126Z,1.37
2023-03-28T13:44:54.100Z,1.30
2023-03-28T13:50:04.235Z,1.20
2023-03-28T13:55:29.862Z,1.47
2023-03-28T14:00:34.896Z,1.60
2023-03-28T14:05:53.283Z,1.20
2023-03-28T14:11:27.059Z,1.00
2023-03-28T14:23:09.485Z,1.23
2023-03-28T14:36:14.834Z,1.20
2023-03-28T14:42:35.299Z,1.17
2023-03-28T14:53:55.368Z,1.20
2023-03-28T15:05:24.600Z,1.40
2023-03-28T15:10:59.331Z,1.50
2023-03-28T15:17:41.334Z,1.27
2023-03-28T16:08:59.427Z,1.30
2023-03-28T16:15:19.255Z,1.53
2023-03-28T16:26:51.143Z,1.50
2023-03-28T16:50:44.107Z,1.53
2023-03-28T16:56:43.183Z,1.70
2023-03-28T17:01:50.872Z,1.83
2023-03-28T17:06:55.602Z,1.47
2023-03-28T17:12:04.182Z,1.50
2023-03-28T17:17:09.447Z,1.40
2023-03-28T17:22:28.388Z,1.60
2023-03-28T17:27:31.178Z,1.60
2023-03-28T17:32:32.907Z,1.83
2023-03-28T17:37:34.754Z,1.57
2023-03-28T17:42:36.304Z,1.80
2023-03-28T17:47:39.405Z,1.80
2023-03-28T17:52:40.980Z,1.50
2023-03-28T17:57:42.850Z,1.50
2023-03-28T18:02:46.335Z,1.73
2023-03-28T18:08:08.059Z,1.80
2023-03-28T18:13:09.884Z,1.47
2023-03-28T18:18:13.162Z,1.47
2023-03-28T18:23:14.852Z,1.83
2023-03-28T18:28:17.838Z,1.87
2023-03-28T18:33:21.077Z,1.87
2023-03-28T18:38:23.050Z,2.63
2023-03-28T18:43:24.856Z,2.30
2023-03-28T18:48:29.790Z,2.27
2023-03-28T18:53:31.368Z,2.10
2023-03-28T18:58:33.927Z,1.97
2023-03-28T19:03:42.998Z,1.77
2023-03-28T19:08:45.010Z,1.50
2023-03-28T19:13:46.868Z,1.63
2023-03-28T19:18:48.611Z,1.70
2023-03-28T19:23:50.813Z,1.43
2023-03-28T19:28:53.423Z,1.70
2023-03-28T19:33:55.068Z,1.40
2023-03-28T19:38:57.260Z,1.50
2023-03-28T19:43:59.136Z,1.60
2023-03-28T19:49:01.818Z,1.77
2023-03-28T19:54:03.831Z,1.80
2023-03-28T19:59:05.671Z,1.73
2023-03-28T20:04:07.875Z,1.63
2023-03-28T20:09:09.754Z,2.30
2023-03-28T20:14:11.392Z,2.30
2023-03-28T20:19:13.357Z,2.30
2023-03-28T20:24:18.212Z,2.17
2023-03-28T20:29:19.906Z,2.20
2023-03-28T20:34:21.605Z,2.00
2023-03-28T20:39:27.740Z,2.07
2023-03-28T20:44:30.024Z,1.97
2023-03-28T20:49:31.888Z,2.23
2023-03-28T20:54:34.216Z,2.07
2023-03-28T20:59:35.929Z,2.07
2023-03-28T21:04:37.953Z,2.07
2023-03-28T21:09:41.780Z,1.90
2023-03-28T21:14:43.417Z,2.10
2023-03-28T21:19:45.195Z,2.50
2023-03-28T21:24:48.344Z,2.20
2023-03-28T21:29:49.902Z,1.93
2023-03-28T21:34:56.477Z,2.00
2023-03-28T21:39:58.140Z,2.13
2023-03-28T21:44:59.966Z,2.10
2023-03-28T21:50:03.099Z,2.30
2023-03-28T21:55:04.948Z,2.50
2023-03-28T22:00:15.068Z,2.63
2023-03-28T22:05:28.683Z,2.13
2023-03-28T22:10:31.854Z,2.83
2023-03-28T22:15:33.549Z,2.53
2023-03-28T22:20:38.388Z,2.73
2023-03-28T22:25:40.093Z,2.60
2023-03-28T22:30:42.497Z,2.80
2023-03-28T22:35:47.084Z,2.40
2023-03-28T22:40:49.264Z,2.50
2023-03-28T22:45:50.863Z,2.50
2023-03-28T22:50:52.520Z,2.70
2023-03-28T22:55:54.917Z,2.60
2023-03-28T23:00:56.473Z,2.40
2023-03-28T23:06:02.262Z,2.67
2023-03-28T23:11:04.153Z,2.77
2023-03-28T23:16:07.248Z,2.90
2023-03-28T23:21:09.185Z,2.90
2023-03-28T23:26:10.869Z,2.47
2023-03-28T23:31:12.486Z,2.60
2023-03-28T23:36:15.080Z,2.40
2023-03-28T23:41:16.745Z,2.60
2023-03-28T23:46:18.749Z,2.53
2023-03-28T23:51:21.086Z,2.20
2023-03-28T23:56:23.922Z,2.40
